sensor_id;sensor_type;location;lat;lon;timestamp;pressure;altitude;pressure_sealevel;temperature;humidity
5913;BME280;2982;42.684;23.356;2023-03-03T00:01:25;94979.72;;;4.31;100.00
5913;BME280;2982;42.684;23.356;2023-03-03T00:03:51;94972.44;;;4.22;100.00
5913;BME280;2982;42.684;23.356;2023-03-03T00:06:16;94967.38;;;4.23;100.00
5913;BME280;2982;42.684;23.356;2023-03-03T00:08:42;94965.72;;;4.22;100.00
5913;BME280;2982;42.684;23.356;2023-03-03T00:11:07;94965.75;;;4.21;100.00
5913;BME280;2982;42.684;23.356;2023-03-03T00:13:59;94967.41;;;4.22;100.00
5913;BME280;2982;42.684;23.356;2023-03-03T00:16:28;94954.88;;;4.20;100.00
5913;BME280;2982;42.684;23.356;2023-03-03T00:18:55;94961.66;;;4.18;100.00
5913;BME280;2982;42.684;23.356;2023-03-03T00:21:34;94946.75;;;4.11;100.00
5913;BME280;2982;42.684;23.356;2023-03-03T00:26:37;94958.53;;;4.10;100.00
5913;BME280;2982;42.684;23.356;2023-03-03T00:29:24;94951.84;;;4.09;100.00
5913;BME280;2982;42.684;23.356;2023-03-03T00:31:50;94954.19;;;4.15;100.00
5913;BME280;2982;42.684;23.356;2023-03-03T00:36:41;94927.81;;;3.99;100.00
5913;BME280;2982;42.684;23.356;2023-03-03T00:41:53;94938.53;;;4.06;100.00
5913;BME280;2982;42.684;23.356;2023-03-03T00:44:46;94939.16;;;4.14;100.00
5913;BME280;2982;42.684;23.356;2023-03-03T00:47:22;94934.88;;;4.16;100.00
5913;BME280;2982;42.684;23.356;2023-03-03T00:49:48;94921.53;;;4.15;100.00
5913;BME280;2982;42.684;23.356;2023-03-03T00:52:16;94924.91;;;4.14;100.00
5913;BME280;2982;42.684;23.356;2023-03-03T00:54:41;94910.91;;;4.06;100.00
5913;BME280;2982;42.684;23.356;2023-03-03T00:57:07;94915.81;;;4.09;100.00
5913;BME280;2982;42.684;23.356;2023-03-03T00:59:32;94916.66;;;4.09;100.00
5913;BME280;2982;42.684;23.356;2023-03-03T01:01:57;94898.41;;;4.03;100.00
5913;BME280;2982;42.684;23.356;2023-03-03T01:04:23;94905.91;;;4.04;100.00
5913;BME280;2982;42.684;23.356;2023-03-03T01:06:48;94862.88;;;3.85;100.00
5913;BME280;2982;42.684;23.356;2023-03-03T01:09:13;94879.16;;;4.02;100.00
5913;BME280;2982;42.684;23.356;2023-03-03T01:11:38;94898.75;;;4.20;100.00
5913;BME280;2982;42.684;23.356;2023-03-03T01:14:04;94879.91;;;4.05;100.00
5913;BME280;2982;42.684;23.356;2023-03-03T01:16:29;94898.91;;;4.15;100.00
5913;BME280;2982;42.684;23.356;2023-03-03T01:18:54;94895.75;;;4.07;100.00
5913;BME280;2982;42.684;23.356;2023-03-03T01:21:20;94895.88;;;4.03;100.00
5913;BME280;2982;42.684;23.356;2023-03-03T01:23:45;94887.88;;;3.90;100.00
5913;BME280;2982;42.684;23.356;2023-03-03T01:26:10;94897.81;;;3.93;100.00
5913;BME280;2982;42.684;23.356;2023-03-03T01:28:35;94907.81;;;3.96;100.00
5913;BME280;2982;42.684;23.356;2023-03-03T01:31:02;94875.41;;;3.87;100.00
5913;BME280;2982;42.684;23.356;2023-03-03T01:33:29;94887.63;;;3.99;100.00
5913;BME280;2982;42.684;23.356;2023-03-03T01:35:54;94887.13;;;3.86;100.00
5913;BME280;2982;42.684;23.356;2023-03-03T01:38:19;94881.09;;;3.92;100.00
5913;BME280;2982;42.684;23.356;2023-03-03T01:40:58;94891.00;;;3.98;100.00
5913;BME280;2982;42.684;23.356;2023-03-03T01:43:28;94888.44;;;3.99;100.00
5913;BME280;2982;42.684;23.356;2023-03-03T01:48:22;94893.47;;;3.99;100.00
5913;BME280;2982;42.684;23.356;2023-03-03T01:51:01;94877.69;;;3.94;100.00
5913;BME280;2982;42.684;23.356;2023-03-03T01:53:33;94869.97;;;3.71;100.00
5913;BME280;2982;42.684;23.356;2023-03-03T01:56:02;94880.63;;;3.79;100.00
5913;BME280;2982;42.684;23.356;2023-03-03T01:58:33;94878.16;;;3.78;100.00
5913;BME280;2982;42.684;23.356;2023-03-03T02:01:03;94879.03;;;3.77;100.00
5913;BME280;2982;42.684;23.356;2023-03-03T02:03:29;94867.41;;;3.73;100.00
5913;BME280;2982;42.684;23.356;2023-03-03T02:05:58;94864.84;;;3.74;100.00
5913;BME280;2982;42.684;23.356;2023-03-03T02:08:40;94874.72;;;3.82;100.00
5913;BME280;2982;42.684;23.356;2023-03-03T02:11:07;94866.53;;;3.74;100.00
5913;BME280;2982;42.684;23.356;2023-03-03T02:13:33;94877.97;;;3.84;100.00
5913;BME280;2982;42.684;23.356;2023-03-03T02:15:58;94865.66;;;3.76;100.00
5913;BME280;2982;42.684;23.356;2023-03-03T02:18:24;94872.06;;;3.86;100.00
5913;BME280;2982;42.684;23.356;2023-03-03T02:28:26;94885.59;;;3.82;100.00
5913;BME280;2982;42.684;23.356;2023-03-03T02:30:57;94882.94;;;3.87;100.00
5913;BME280;2982;42.684;23.356;2023-03-03T02:33:23;94881.22;;;3.87;100.00
5913;BME280;2982;42.684;23.356;2023-03-03T02:35:49;94887.88;;;3.90;100.00
5913;BME280;2982;42.684;23.356;2023-03-03T02:38:31;94856.44;;;3.75;100.00
5913;BME280;2982;42.684;23.356;2023-03-03T02:41:15;94845.00;;;3.65;100.00
5913;BME280;2982;42.684;23.356;2023-03-03T02:43:51;94881.34;;;3.83;100.00
5913;BME280;2982;42.684;23.356;2023-03-03T02:46:20;94875.59;;;3.79;100.00
5913;BME280;2982;42.684;23.356;2023-03-03T02:48:45;94886.59;;;3.75;100.00
5913;BME280;2982;42.684;23.356;2023-03-03T02:51:11;94874.97;;;3.73;100.00
5913;BME280;2982;42.684;23.356;2023-03-03T02:53:36;94875.88;;;3.69;100.00
5913;BME280;2982;42.684;23.356;2023-03-03T02:56:01;94870.25;;;3.61;100.00
5913;BME280;2982;42.684;23.356;2023-03-03T02:58:26;94836.19;;;3.50;100.00
5913;BME280;2982;42.684;23.356;2023-03-03T03:00:52;94859.91;;;3.71;100.00
5913;BME280;2982;42.684;23.356;2023-03-03T03:03:17;94876.31;;;3.83;100.00
5913;BME280;2982;42.684;23.356;2023-03-03T03:05:42;94874.56;;;3.86;100.00
5913;BME280;2982;42.684;23.356;2023-03-03T03:08:08;94867.22;;;3.79;100.00
5913;BME280;2982;42.684;23.356;2023-03-03T03:10:35;94870.50;;;3.82;100.00
5913;BME280;2982;42.684;23.356;2023-03-03T03:13:00;94871.41;;;3.80;100.00
5913;BME280;2982;42.684;23.356;2023-03-03T03:15:25;94850.84;;;3.66;100.00
5913;BME280;2982;42.684;23.356;2023-03-03T03:17:51;94875.44;;;3.85;100.00
5913;BME280;2982;42.684;23.356;2023-03-03T03:20:16;94861.34;;;3.80;100.00
5913;BME280;2982;42.684;23.356;2023-03-03T03:22:41;94868.53;;;3.92;100.00
5913;BME280;2982;42.684;23.356;2023-03-03T03:25:07;94864.31;;;3.94;100.00
5913;BME280;2982;42.684;23.356;2023-03-03T03:27:32;94864.31;;;3.94;100.00
5913;BME280;2982;42.684;23.356;2023-03-03T03:29:58;94868.53;;;3.92;100.00
5913;BME280;2982;42.684;23.356;2023-03-03T03:32:23;94851.31;;;3.80;100.00
5913;BME280;2982;42.684;23.356;2023-03-03T03:34:48;94872.09;;;3.85;100.00
5913;BME280;2982;42.684;23.356;2023-03-03T03:37:14;94861.22;;;3.84;100.00
5913;BME280;2982;42.684;23.356;2023-03-03T03:39:39;94864.69;;;3.80;100.00
5913;BME280;2982;42.684;23.356;2023-03-03T03:42:04;94849.53;;;3.83;100.00
5913;BME280;2982;42.684;23.356;2023-03-03T03:44:30;94848.53;;;3.89;100.00
5913;BME280;2982;42.684;23.356;2023-03-03T03:46:55;94853.38;;;3.95;100.00
5913;BME280;2982;42.684;23.356;2023-03-03T03:49:20;94856.53;;;4.02;100.00
5913;BME280;2982;42.684;23.356;2023-03-03T03:51:46;94850.16;;;3.91;100.00
5913;BME280;2982;42.684;23.356;2023-03-03T03:54:11;94850.19;;;3.90;100.00
5913;BME280;2982;42.684;23.356;2023-03-03T03:56:36;94840.25;;;3.85;100.00
5913;BME280;2982;42.684;23.356;2023-03-03T03:59:02;94849.53;;;3.83;100.00
5913;BME280;2982;42.684;23.356;2023-03-03T04:01:29;94852.03;;;3.83;100.00
5913;BME280;2982;42.684;23.356;2023-03-03T04:03:54;94828.00;;;3.75;100.00
5913;BME280;2982;42.684;23.356;2023-03-03T04:06:20;94832.94;;;3.78;100.00
5913;BME280;2982;42.684;23.356;2023-03-03T04:08:45;94836.94;;;3.83;100.00
5913;BME280;2982;42.684;23.356;2023-03-03T04:11:10;94824.75;;;3.71;100.00
5913;BME280;2982;42.684;23.356;2023-03-03T04:13:36;94844.59;;;3.80;100.00
5913;BME280;2982;42.684;23.356;2023-03-03T04:16:02;94833.56;;;3.86;100.00
5913;BME280;2982;42.684;23.356;2023-03-03T04:18:27;94832.44;;;3.96;100.00
5913;BME280;2982;42.684;23.356;2023-03-03T04:20:53;94815.44;;;3.75;100.00
5913;BME280;2982;42.684;23.356;2023-03-03T04:23:19;94832.59;;;3.90;100.00
5913;BME280;2982;42.684;23.356;2023-03-03T04:25:47;94841.22;;;3.81;100.00
5913;BME280;2982;42.684;23.356;2023-03-03T04:28:14;94842.13;;;3.79;100.00
5913;BME280;2982;42.684;23.356;2023-03-03T04:30:39;94830.59;;;3.72;100.00
5913;BME280;2982;42.684;23.356;2023-03-03T04:33:05;94814.69;;;3.71;100.00
5913;BME280;2982;42.684;23.356;2023-03-03T04:35:30;94832.84;;;3.81;100.00
5913;BME280;2982;42.684;23.356;2023-03-03T04:37:55;94829.56;;;3.79;100.00
5913;BME280;2982;42.684;23.356;2023-03-03T04:40:21;94835.28;;;3.84;100.00
5913;BME280;2982;42.684;23.356;2023-03-03T04:42:46;94821.28;;;3.75;100.00
5913;BME280;2982;42.684;23.356;2023-03-03T04:45:11;94835.25;;;3.85;100.00
5913;BME280;2982;42.684;23.356;2023-03-03T04:47:37;94831.47;;;3.71;100.00
5913;BME280;2982;42.684;23.356;2023-03-03T04:50:02;94794.28;;;3.54;100.00
5913;BME280;2982;42.684;23.356;2023-03-03T04:52:27;94797.63;;;3.53;100.00
5913;BME280;2982;42.684;23.356;2023-03-03T04:54:53;94833.00;;;3.76;100.00
5913;BME280;2982;42.684;23.356;2023-03-03T04:57:18;94826.34;;;3.74;100.00
5913;BME280;2982;42.684;23.356;2023-03-03T04:59:43;94839.53;;;3.82;100.00
5913;BME280;2982;42.684;23.356;2023-03-03T05:02:09;94820.44;;;3.76;100.00
5913;BME280;2982;42.684;23.356;2023-03-03T05:04:34;94839.69;;;3.76;100.00
5913;BME280;2982;42.684;23.356;2023-03-03T05:07:00;94805.91;;;3.57;100.00
5913;BME280;2982;42.684;23.356;2023-03-03T05:09:26;94843.13;;;3.73;100.00
5913;BME280;2982;42.684;23.356;2023-03-03T05:11:51;94840.56;;;3.75;100.00
5913;BME280;2982;42.684;23.356;2023-03-03T05:14:17;94840.44;;;3.79;100.00
5913;BME280;2982;42.684;23.356;2023-03-03T05:16:42;94842.19;;;3.77;100.00
5913;BME280;2982;42.684;23.356;2023-03-03T05:19:07;94840.81;;;3.95;100.00
5913;BME280;2982;42.684;23.356;2023-03-03T05:21:33;94849.13;;;3.97;100.00
5913;BME280;2982;42.684;23.356;2023-03-03T05:23:58;94846.28;;;4.09;100.00
5913;BME280;2982;42.684;23.356;2023-03-03T05:26:23;94839.44;;;4.14;100.00
5913;BME280;2982;42.684;23.356;2023-03-03T05:28:49;94842.78;;;4.15;100.00
5913;BME280;2982;42.684;23.356;2023-03-03T05:31:14;94853.72;;;4.12;100.00
5913;BME280;2982;42.684;23.356;2023-03-03T05:33:39;94826.47;;;3.98;100.00
5913;BME280;2982;42.684;23.356;2023-03-03T05:36:05;94857.16;;;4.10;100.00
5913;BME280;2982;42.684;23.356;2023-03-03T05:38:30;94846.41;;;4.05;100.00
5913;BME280;2982;42.684;23.356;2023-03-03T05:40:56;94849.78;;;4.04;100.00
5913;BME280;2982;42.684;23.356;2023-03-03T05:43:21;94831.22;;;4.08;100.00
5913;BME280;2982;42.684;23.356;2023-03-03T05:45:46;94850.91;;;4.23;100.00
5913;BME280;2982;42.684;23.356;2023-03-03T05:48:11;94850.75;;;4.27;100.00
5913;BME280;2982;42.684;23.356;2023-03-03T05:50:37;94840.84;;;4.23;100.00
5913;BME280;2982;42.684;23.356;2023-03-03T05:53:02;94852.06;;;4.39;100.00
5913;BME280;2982;42.684;23.356;2023-03-03T05:55:28;94849.38;;;4.45;100.00
5913;BME280;2982;42.684;23.356;2023-03-03T05:57:54;94857.78;;;4.44;100.00
5913;BME280;2982;42.684;23.356;2023-03-03T06:00:19;94860.41;;;4.41;100.00
5913;BME280;2982;42.684;23.356;2023-03-03T06:02:45;94862.34;;;4.59;100.00
5913;BME280;2982;42.684;23.356;2023-03-03T06:05:10;94859.28;;;4.50;100.00
5913;BME280;2982;42.684;23.356;2023-03-03T06:07:36;94852.25;;;4.61;100.00
5913;BME280;2982;42.684;23.356;2023-03-03T06:10:02;94861.94;;;4.73;100.00
5913;BME280;2982;42.684;23.356;2023-03-03T06:12:28;94850.72;;;4.83;100.00
5913;BME280;2982;42.684;23.356;2023-03-03T06:14:53;94865.66;;;4.87;100.00
5913;BME280;2982;42.684;23.356;2023-03-03T06:17:19;94866.66;;;4.82;100.00
5913;BME280;2982;42.684;23.356;2023-03-03T06:19:44;94848.19;;;4.83;100.00
5913;BME280;2982;42.684;23.356;2023-03-03T06:22:09;94850.25;;;4.97;100.00
5913;BME280;2982;42.684;23.356;2023-03-03T06:24:35;94859.00;;;5.11;100.00
5913;BME280;2982;42.684;23.356;2023-03-03T06:27:00;94783.56;;;4.59;100.00
5913;BME280;2982;42.684;23.356;2023-03-03T06:29:26;94874.16;;;5.10;100.00
5913;BME280;2982;42.684;23.356;2023-03-03T06:31:52;94878.19;;;5.15;100.00
5913;BME280;2982;42.684;23.356;2023-03-03T06:34:18;94871.91;;;5.02;100.00
5913;BME280;2982;42.684;23.356;2023-03-03T06:36:43;94876.75;;;5.08;100.00
5913;BME280;2982;42.684;23.356;2023-03-03T06:39:08;94876.22;;;4.99;100.00
5913;BME280;2982;42.684;23.356;2023-03-03T06:41:34;94874.47;;;5.01;100.00
5913;BME280;2982;42.684;23.356;2023-03-03T06:43:59;94836.88;;;4.95;100.00
5913;BME280;2982;42.684;23.356;2023-03-03T06:46:25;94853.41;;;5.03;100.00
5913;BME280;2982;42.684;23.356;2023-03-03T06:48:50;94879.84;;;5.16;100.00
5913;BME280;2982;42.684;23.356;2023-03-03T06:51:24;94862.59;;;5.04;100.00
5913;BME280;2982;42.684;23.356;2023-03-03T06:53:53;94882.25;;;5.19;100.00
5913;BME280;2982;42.684;23.356;2023-03-03T06:56:19;94861.84;;;5.02;100.00
5913;BME280;2982;42.684;23.356;2023-03-03T06:58:45;94852.75;;;4.98;100.00
5913;BME280;2982;42.684;23.356;2023-03-03T07:01:15;94876.75;;;5.08;100.00
5913;BME280;2982;42.684;23.356;2023-03-03T07:03:41;94872.56;;;5.07;100.00
5913;BME280;2982;42.684;23.356;2023-03-03T07:06:21;94879.41;;;5.28;100.00
5913;BME280;2982;42.684;23.356;2023-03-03T07:08:47;94864.63;;;5.19;100.00
5913;BME280;2982;42.684;23.356;2023-03-03T07:11:16;94885.13;;;5.33;100.00
5913;BME280;2982;42.684;23.356;2023-03-03T07:13:47;94879.06;;;5.39;100.00
5913;BME280;2982;42.684;23.356;2023-03-03T07:16:15;94884.88;;;5.41;100.00
5913;BME280;2982;42.684;23.356;2023-03-03T07:18:59;94868.38;;;5.32;100.00
5913;BME280;2982;42.684;23.356;2023-03-03T07:21:30;94882.31;;;5.43;100.00
5913;BME280;2982;42.684;23.356;2023-03-03T07:23:56;94887.66;;;5.33;100.00
5913;BME280;2982;42.684;23.356;2023-03-03T07:26:29;94848.03;;;5.39;100.00
5913;BME280;2982;42.684;23.356;2023-03-03T07:31:45;94883.13;;;5.68;100.00
5913;BME280;2982;42.684;23.356;2023-03-03T07:34:41;94875.78;;;5.85;100.00
5913;BME280;2982;42.684;23.356;2023-03-03T07:37:36;94877.47;;;5.85;100.00
5913;BME280;2982;42.684;23.356;2023-03-03T07:40:22;94862.56;;;5.78;100.00
5913;BME280;2982;42.684;23.356;2023-03-03T07:42:49;94884.63;;;5.73;100.00
5913;BME280;2982;42.684;23.356;2023-03-03T07:45:34;94852.09;;;5.66;100.00
5913;BME280;2982;42.684;23.356;2023-03-03T07:50:39;94875.44;;;5.71;100.00
5913;BME280;2982;42.684;23.356;2023-03-03T07:53:13;94882.25;;;5.69;100.00
5913;BME280;2982;42.684;23.356;2023-03-03T07:55:39;94848.47;;;5.50;100.00
5913;BME280;2982;42.684;23.356;2023-03-03T08:03:15;94868.50;;;5.78;100.00
5913;BME280;2982;42.684;23.356;2023-03-03T08:05:42;94857.69;;;5.74;100.00
5913;BME280;2982;42.684;23.356;2023-03-03T08:10:50;94861.47;;;5.87;100.00
5913;BME280;2982;42.684;23.356;2023-03-03T08:13:43;94867.81;;;5.97;100.00
5913;BME280;2982;42.684;23.356;2023-03-03T08:18:47;94873.22;;;6.33;100.00
5913;BME280;2982;42.684;23.356;2023-03-03T08:21:14;94846.69;;;6.01;100.00
5913;BME280;2982;42.684;23.356;2023-03-03T08:23:40;94863.09;;;6.11;100.00
5913;BME280;2982;42.684;23.356;2023-03-03T08:26:06;94866.22;;;6.18;100.00
5913;BME280;2982;42.684;23.356;2023-03-03T08:28:32;94855.44;;;6.14;100.00
5913;BME280;2982;42.684;23.356;2023-03-03T08:30:57;94861.50;;;6.09;100.00
5913;BME280;2982;42.684;23.356;2023-03-03T08:33:22;94844.91;;;6.03;100.00
5913;BME280;2982;42.684;23.356;2023-03-03T08:35:48;94858.34;;;6.04;100.00
5913;BME280;2982;42.684;23.356;2023-03-03T08:38:15;94855.06;;;6.02;100.00
5913;BME280;2982;42.684;23.356;2023-03-03T08:40:41;94852.59;;;6.00;100.00
5913;BME280;2982;42.684;23.356;2023-03-03T08:43:07;94861.06;;;5.98;100.00
5913;BME280;2982;42.684;23.356;2023-03-03T08:45:33;94868.78;;;5.93;100.00
5913;BME280;2982;42.684;23.356;2023-03-03T08:47:58;94864.41;;;5.98;100.00
5913;BME280;2982;42.684;23.356;2023-03-03T08:50:23;94863.16;;;6.10;100.00
5913;BME280;2982;42.684;23.356;2023-03-03T08:52:49;94862.75;;;5.97;100.00
5913;BME280;2982;42.684;23.356;2023-03-03T08:55:14;94853.28;;;6.04;100.00
5913;BME280;2982;42.684;23.356;2023-03-03T08:57:39;94837.09;;;5.88;100.00
5913;BME280;2982;42.684;23.356;2023-03-03T09:00:07;94865.34;;;6.19;100.00
5913;BME280;2982;42.684;23.356;2023-03-03T09:02:33;94862.25;;;6.34;100.00
5913;BME280;2982;42.684;23.356;2023-03-03T09:04:58;94870.22;;;6.45;100.00
5913;BME280;2982;42.684;23.356;2023-03-03T09:07:24;94876.88;;;6.70;100.00
5913;BME280;2982;42.684;23.356;2023-03-03T09:09:49;94867.47;;;6.73;100.00
5913;BME280;2982;42.684;23.356;2023-03-03T09:12:17;94859.53;;;6.82;100.00
5913;BME280;2982;42.684;23.356;2023-03-03T09:14:43;94854.25;;;6.88;100.00
5913;BME280;2982;42.684;23.356;2023-03-03T09:19:59;94851.63;;;7.12;100.00
5913;BME280;2982;42.684;23.356;2023-03-03T09:22:26;94848.97;;;7.35;100.00
5913;BME280;2982;42.684;23.356;2023-03-03T09:24:54;94827.16;;;7.14;100.00
5913;BME280;2982;42.684;23.356;2023-03-03T09:27:29;94847.53;;;7.29;100.00
5913;BME280;2982;42.684;23.356;2023-03-03T09:30:00;94851.25;;;7.41;100.00
5913;BME280;2982;42.684;23.356;2023-03-03T09:32:34;94837.72;;;7.42;100.00
5913;BME280;2982;42.684;23.356;2023-03-03T09:35:37;94859.44;;;7.66;100.00
5913;BME280;2982;42.684;23.356;2023-03-03T09:46:54;94854.16;;;7.91;100.00
5913;BME280;2982;42.684;23.356;2023-03-03T09:49:34;94845.91;;;7.67;100.00
5913;BME280;2982;42.684;23.356;2023-03-03T09:55:13;94852.66;;;8.06;100.00
5913;BME280;2982;42.684;23.356;2023-03-03T09:57:59;94831.13;;;7.97;100.00
5913;BME280;2982;42.684;23.356;2023-03-03T10:05:43;94850.41;;;8.56;100.00
5913;BME280;2982;42.684;23.356;2023-03-03T10:08:42;94842.53;;;8.62;100.00
5913;BME280;2982;42.684;23.356;2023-03-03T10:11:18;94844.00;;;8.49;100.00
5913;BME280;2982;42.684;23.356;2023-03-03T10:19:40;94835.13;;;8.93;100.00
5913;BME280;2982;42.684;23.356;2023-03-03T10:22:16;94834.91;;;8.98;100.00
5913;BME280;2982;42.684;23.356;2023-03-03T10:27:38;94836.41;;;8.84;100.00
5913;BME280;2982;42.684;23.356;2023-03-03T10:30:15;94797.31;;;8.54;100.00
5913;BME280;2982;42.684;23.356;2023-03-03T10:33:00;94823.03;;;8.64;100.00
5913;BME280;2982;42.684;23.356;2023-03-03T10:35:36;94824.09;;;8.77;100.00
5913;BME280;2982;42.684;23.356;2023-03-03T10:40:49;94803.00;;;8.40;100.00
5913;BME280;2982;42.684;23.356;2023-03-03T10:57:23;94820.72;;;8.22;100.00
5913;BME280;2982;42.684;23.356;2023-03-03T11:07:57;94802.47;;;7.59;100.00
5913;BME280;2982;42.684;23.356;2023-03-03T11:13:23;94806.31;;;7.86;100.00
5913;BME280;2982;42.684;23.356;2023-03-03T11:16:14;94806.66;;;7.79;100.00
5913;BME280;2982;42.684;23.356;2023-03-03T11:21:23;94792.97;;;7.64;100.00
5913;BME280;2982;42.684;23.356;2023-03-03T11:26:40;94785.63;;;7.39;100.00
5913;BME280;2982;42.684;23.356;2023-03-03T11:32:05;94796.69;;;7.37;100.00
5913;BME280;2982;42.684;23.356;2023-03-03T11:37:09;94792.66;;;7.51;100.00
5913;BME280;2982;42.684;23.356;2023-03-03T11:39:38;94790.72;;;7.58;100.00
5913;BME280;2982;42.684;23.356;2023-03-03T11:45:18;94783.50;;;7.69;100.00
5913;BME280;2982;42.684;23.356;2023-03-03T11:50:25;94762.88;;;7.39;100.00
5913;BME280;2982;42.684;23.356;2023-03-03T11:55:37;94787.91;;;7.25;100.00
5913;BME280;2982;42.684;23.356;2023-03-03T11:58:24;94778.63;;;7.26;100.00
5913;BME280;2982;42.684;23.356;2023-03-03T12:00:54;94774.44;;;7.45;100.00
5913;BME280;2982;42.684;23.356;2023-03-03T12:13:51;94778.13;;;7.75;100.00
5913;BME280;2982;42.684;23.356;2023-03-03T12:16:26;94776.13;;;7.83;100.00
5913;BME280;2982;42.684;23.356;2023-03-03T12:19:24;94778.91;;;7.77;100.00
5913;BME280;2982;42.684;23.356;2023-03-03T12:27:53;94770.34;;;7.80;100.00
5913;BME280;2982;42.684;23.356;2023-03-03T12:35:30;94764.97;;;7.87;100.00
5913;BME280;2982;42.684;23.356;2023-03-03T12:40:44;94786.28;;;8.01;100.00
5913;BME280;2982;42.684;23.356;2023-03-03T12:48:18;94791.88;;;7.51;100.00
5913;BME280;2982;42.684;23.356;2023-03-03T12:56:43;94779.78;;;7.37;100.00
5913;BME280;2982;42.684;23.356;2023-03-03T13:02:01;94784.44;;;6.87;100.00
5913;BME280;2982;42.684;23.356;2023-03-03T13:05:15;94779.44;;;6.66;100.00
5913;BME280;2982;42.684;23.356;2023-03-03T13:10:25;94779.41;;;6.45;100.00
5913;BME280;2982;42.684;23.356;2023-03-03T13:12:57;94782.09;;;6.41;100.00
5913;BME280;2982;42.684;23.356;2023-03-03T13:16:01;94782.81;;;6.23;100.00
5913;BME280;2982;42.684;23.356;2023-03-03T13:18:49;94765.13;;;6.24;100.00
5913;BME280;2982;42.684;23.356;2023-03-03T13:31:52;94763.81;;;6.98;100.00
5913;BME280;2982;42.684;23.356;2023-03-03T13:36:55;94740.41;;;7.33;100.00
5913;BME280;2982;42.684;23.356;2023-03-03T13:39:26;94746.50;;;7.85;100.00
5913;BME280;2982;42.684;23.356;2023-03-03T13:42:23;94760.94;;;8.02;100.00
5913;BME280;2982;42.684;23.356;2023-03-03T13:44:51;94776.13;;;7.83;100.00
5913;BME280;2982;42.684;23.356;2023-03-03T13:55:33;94766.72;;;7.09;100.00
5913;BME280;2982;42.684;23.356;2023-03-03T14:01:00;94758.66;;;7.20;100.00
5913;BME280;2982;42.684;23.356;2023-03-03T14:04:03;94745.13;;;7.02;100.00
5913;BME280;2982;42.684;23.356;2023-03-03T14:06:30;94747.59;;;7.03;100.00
5913;BME280;2982;42.684;23.356;2023-03-03T14:09:20;94766.78;;;7.28;100.00
5913;BME280;2982;42.684;23.356;2023-03-03T14:12:03;94767.66;;;7.27;100.00
5913;BME280;2982;42.684;23.356;2023-03-03T14:20:27;94755.72;;;7.10;100.00
5913;BME280;2982;42.684;23.356;2023-03-03T14:22:58;94758.94;;;7.14;100.00
5913;BME280;2982;42.684;23.356;2023-03-03T14:25:26;94755.47;;;7.16;100.00
5913;BME280;2982;42.684;23.356;2023-03-03T14:28:11;94737.22;;;7.09;100.00
5913;BME280;2982;42.684;23.356;2023-03-03T14:30:38;94723.91;;;7.06;100.00
5913;BME280;2982;42.684;23.356;2023-03-03T14:33:14;94753.16;;;7.30;100.00
5913;BME280;2982;42.684;23.356;2023-03-03T14:35:43;94745.03;;;7.24;100.00
5913;BME280;2982;42.684;23.356;2023-03-03T14:38:14;94748.94;;;7.31;100.00
5913;BME280;2982;42.684;23.356;2023-03-03T14:40:42;94734.47;;;7.34;100.00
5913;BME280;2982;42.684;23.356;2023-03-03T14:43:26;94745.00;;;7.44;100.00
5913;BME280;2982;42.684;23.356;2023-03-03T14:46:21;94751.53;;;7.48;100.00
5913;BME280;2982;42.684;23.356;2023-03-03T14:48:56;94748.50;;;7.41;100.00
5913;BME280;2982;42.684;23.356;2023-03-03T14:54:07;94742.97;;;7.13;100.00
5913;BME280;2982;42.684;23.356;2023-03-03T14:56:35;94742.59;;;7.02;100.00
5913;BME280;2982;42.684;23.356;2023-03-03T15:01:38;94734.34;;;6.98;100.00
5913;BME280;2982;42.684;23.356;2023-03-03T15:04:09;94747.84;;;7.18;100.00
5913;BME280;2982;42.684;23.356;2023-03-03T15:06:52;94734.19;;;7.22;100.00
5913;BME280;2982;42.684;23.356;2023-03-03T15:09:36;94736.31;;;7.31;100.00
5913;BME280;2982;42.684;23.356;2023-03-03T15:14:46;94747.28;;;7.30;100.00
5913;BME280;2982;42.684;23.356;2023-03-03T15:17:24;94741.22;;;7.34;100.00
5913;BME280;2982;42.684;23.356;2023-03-03T15:22:48;94745.66;;;7.29;100.00
5913;BME280;2982;42.684;23.356;2023-03-03T15:36:39;94758.47;;;7.24;100.00
5913;BME280;2982;42.684;23.356;2023-03-03T15:42:01;94755.91;;;7.05;100.00
5913;BME280;2982;42.684;23.356;2023-03-03T15:50:43;94757.69;;;7.03;100.00
5913;BME280;2982;42.684;23.356;2023-03-03T16:01:16;94759.19;;;7.07;100.00
5913;BME280;2982;42.684;23.356;2023-03-03T16:04:11;94762.94;;;6.99;100.00
5913;BME280;2982;42.684;23.356;2023-03-03T16:18:18;94734.22;;;6.61;100.00
5913;BME280;2982;42.684;23.356;2023-03-03T16:26:14;94740.50;;;6.51;100.00
5913;BME280;2982;42.684;23.356;2023-03-03T16:28:58;94786.84;;;6.70;100.00
5913;BME280;2982;42.684;23.356;2023-03-03T16:32:04;94790.00;;;6.75;100.00
5913;BME280;2982;42.684;23.356;2023-03-03T16:40:00;94793.41;;;6.74;100.00
5913;BME280;2982;42.684;23.356;2023-03-03T16:42:29;94784.69;;;6.61;100.00
5913;BME280;2982;42.684;23.356;2023-03-03T16:45:19;94791.75;;;6.73;100.00
5913;BME280;2982;42.684;23.356;2023-03-03T16:50:46;94808.41;;;6.77;100.00
5913;BME280;2982;42.684;23.356;2023-03-03T16:53:19;94813.22;;;6.83;100.00
5913;BME280;2982;42.684;23.356;2023-03-03T17:04:04;94826.44;;;6.90;100.00
5913;BME280;2982;42.684;23.356;2023-03-03T17:06:46;94834.06;;;6.88;100.00
5913;BME280;2982;42.684;23.356;2023-03-03T17:15:33;94816.69;;;6.81;100.00
5913;BME280;2982;42.684;23.356;2023-03-03T17:17:43;94805.06;;;6.77;100.00
5913;BME280;2982;42.684;23.356;2023-03-03T17:25:58;94818.63;;;6.74;100.00
5913;BME280;2982;42.684;23.356;2023-03-03T17:31:44;94836.91;;;6.81;100.00
5913;BME280;2982;42.684;23.356;2023-03-03T17:34:26;94834.38;;;6.81;100.00
5913;BME280;2982;42.684;23.356;2023-03-03T17:45:24;94838.13;;;6.71;100.00
5913;BME280;2982;42.684;23.356;2023-03-03T17:56:02;94853.31;;;6.91;100.00
5913;BME280;2982;42.684;23.356;2023-03-03T18:09:50;94869.03;;;6.97;100.00
5913;BME280;2982;42.684;23.356;2023-03-03T18:17:42;94877.38;;;6.99;100.00
5913;BME280;2982;42.684;23.356;2023-03-03T18:23:41;94878.56;;;6.91;100.00
5913;BME280;2982;42.684;23.356;2023-03-03T18:39:46;94894.06;;;6.82;100.00
5913;BME280;2982;42.684;23.356;2023-03-03T18:44:41;94901.44;;;6.86;100.00
5913;BME280;2982;42.684;23.356;2023-03-03T18:47:07;94894.78;;;6.85;100.00